Muddy Gap, Wyoming
Current Conditions -  °F | °C
As of 1:53 AM on Friday 31 Oct 2014 (Local Time) from KRWL Reporting Station
Clear Clear  
Wind Chill: 28°   Ceiling: Unl
Heat Index: 28°   Visibility: 10mi
Dew Point: 17°   Wind: 3mph
Humidity: 63%   Direction: 310°NW
Pressure: 30.3"   Gusts: NA
Location:  41.7532°N, 107.372°W
Report Text: KRWL 310753Z AUTO 31003KT 10SM CLR M02/M08 A3030 RMK AO2 SLP231 T10221083
Loading
Personal Weather Stations






























Interactive Weather Map
Tropical Storm Tracking
New forecast layout! Learn more

10-Day Weather Forecast

Advertisements
Track Severe Weather on mobile